Time;durP1;ratioP1;P1;durP2;ratioP2;P2;SDS_P1;SDS_P2;PMS_P1;PMS_P2;Temp;Humidity;BMP_temperature;BMP_pressure;BME280_temperature;BME280_humidity;BME280_pressure;Samples;Min_cycle;Max_cycle;Signal;HPM_P1;HPM_P2
2022/10/07 00:01:29;;;;;;;6.63;4.00;;;16.10;99.90;;;;;;5052304;28;20029;-72
2022/10/07 00:03:55;;;;;;;9.98;3.45;;;16.10;99.90;;;;;;5052619;28;20025;-72
2022/10/07 00:06:21;;;;;;;6.57;4.05;;;16.10;99.90;;;;;;5051670;28;20025;-72
2022/10/07 00:08:50;;;;;;;7.13;3.38;;;16.10;99.90;;;;;;5051982;28;20462;-71
2022/10/07 00:11:20;;;;;;;6.15;3.92;;;16.00;99.90;;;;;;5051526;28;20473;-73
2022/10/07 00:13:48;;;;;;;6.65;3.65;;;16.00;99.90;;;;;;5051953;28;20104;-72
2022/10/07 00:16:26;;;;;;;5.70;3.40;;;15.90;99.90;;;;;;5052374;28;20033;-73
2022/10/07 00:18:55;;;;;;;5.65;3.50;;;15.90;99.90;;;;;;5056016;28;20111;-73
2022/10/07 00:21:21;;;;;;;4.53;3.38;;;15.90;99.90;;;;;;5055731;28;20530;-73
2022/10/07 00:23:47;;;;;;;6.93;3.85;;;15.90;99.90;;;;;;5056169;28;20020;-73
2022/10/07 00:26:16;;;;;;;8.35;4.05;;;15.90;99.90;;;;;;5055705;28;20033;-72
2022/10/07 00:28:42;;;;;;;6.82;3.85;;;15.90;99.90;;;;;;5056189;28;20029;-72
2022/10/07 00:31:19;;;;;;;4.65;3.28;;;15.90;99.90;;;;;;5054962;28;20048;-73
2022/10/07 00:33:45;;;;;;;5.22;3.83;;;15.90;99.90;;;;;;5055615;28;20039;-73
2022/10/07 00:36:13;;;;;;;9.80;4.18;;;15.90;99.90;;;;;;5055607;28;20099;-72
2022/10/07 00:38:39;;;;;;;7.88;3.83;;;15.80;99.90;;;;;;5055588;28;20497;-72
2022/10/07 00:41:07;;;;;;;5.50;3.70;;;15.80;99.90;;;;;;5055882;28;20036;-74
2022/10/07 00:43:32;;;;;;;6.63;4.30;;;15.80;99.90;;;;;;5055707;28;20489;-73
2022/10/07 00:46:06;;;;;;;8.95;4.25;;;15.80;99.90;;;;;;5055787;28;20072;-73
2022/10/07 00:48:35;;;;;;;5.93;4.15;;;15.80;99.90;;;;;;5055744;28;20060;-73
2022/10/07 00:51:01;;;;;;;6.57;4.03;;;15.80;99.90;;;;;;5055771;28;20029;-72
2022/10/07 00:53:30;;;;;;;8.30;5.00;;;15.80;99.90;;;;;;5054925;28;20447;-73
2022/10/07 00:56:00;;;;;;;8.57;4.20;;;15.80;99.90;;;;;;5055585;28;20111;-73
2022/10/07 00:58:28;;;;;;;7.53;4.55;;;15.70;99.90;;;;;;5055063;28;20033;-73
2022/10/07 01:00:54;;;;;;;9.25;4.57;;;15.70;99.90;;;;;;5055394;28;20469;-73
2022/10/07 01:03:20;;;;;;;12.10;4.68;;;15.70;99.90;;;;;;5054987;28;20033;-73
2022/10/07 01:05:45;;;;;;;7.20;4.47;;;15.60;99.90;;;;;;5055030;28;20036;-73
2022/10/07 01:08:12;;;;;;;7.82;4.78;;;15.60;99.90;;;;;;5054582;28;20029;-73
2022/10/07 01:10:55;;;;;;;10.43;5.18;;;15.60;99.90;;;;;;5055341;28;20511;-73
2022/10/07 01:13:21;;;;;;;9.30;5.18;;;15.60;99.90;;;;;;5054613;28;20032;-72
2022/10/07 01:16:21;;;;;;;8.15;5.22;;;15.60;99.90;;;;;;5054907;28;20029;-71
2022/10/07 01:19:02;;;;;;;6.70;4.55;;;15.50;99.90;;;;;;5050645;28;20151;-72
2022/10/07 01:22:03;;;;;;;8.43;4.80;;;15.60;99.90;;;;;;5054599;28;20051;-71
2022/10/07 01:24:36;;;;;;;6.88;4.45;;;15.60;99.90;;;;;;5054625;28;20276;-73
2022/10/07 01:27:08;;;;;;;7.32;4.50;;;15.50;99.90;;;;;;5055022;28;20029;-73
2022/10/07 01:29:54;;;;;;;9.10;4.25;;;15.50;99.90;;;;;;5053621;28;20171;-73
2022/10/07 01:32:23;;;;;;;6.43;3.97;;;15.50;99.90;;;;;;5051660;28;20052;-73
2022/10/07 01:34:51;;;;;;;8.45;3.97;;;15.50;99.90;;;;;;5054424;28;20029;-72
2022/10/07 01:37:19;;;;;;;8.63;4.70;;;15.40;99.90;;;;;;5051341;28;20025;-73
2022/10/07 01:39:52;;;;;;;10.43;4.22;;;15.40;99.90;;;;;;5054267;28;20111;-73
2022/10/07 01:42:20;;;;;;;9.25;4.50;;;15.40;99.90;;;;;;5051473;28;20031;-72
2022/10/07 01:44:51;;;;;;;5.78;3.63;;;15.30;99.90;;;;;;5054159;28;20021;-73
2022/10/07 01:47:17;;;;;;;8.35;3.88;;;15.30;99.90;;;;;;5051417;28;20450;-72
2022/10/07 01:49:43;;;;;;;8.25;3.70;;;15.30;99.90;;;;;;5054060;28;20021;-73
2022/10/07 01:52:42;;;;;;;6.90;3.97;;;15.30;99.90;;;;;;5054155;28;20024;-72
2022/10/07 01:55:37;;;;;;;8.50;4.15;;;15.20;99.90;;;;;;5051793;28;20021;-72
2022/10/07 01:58:29;;;;;;;8.73;4.40;;;15.20;99.90;;;;;;5052307;28;20120;-72
2022/10/07 02:01:18;;;;;;;11.90;4.05;;;15.20;99.90;;;;;;5054080;28;20017;-73
2022/10/07 02:04:12;;;;;;;9.27;5.22;;;15.20;99.90;;;;;;5051010;28;20397;-72
2022/10/07 02:06:44;;;;;;;6.50;4.53;;;15.20;99.90;;;;;;5050934;28;20040;-72
2022/10/07 02:09:30;;;;;;;8.20;4.93;;;15.20;99.90;;;;;;5053617;28;20029;-72
2022/10/07 02:12:07;;;;;;;7.80;4.57;;;15.20;99.90;;;;;;5054008;28;20029;-72
2022/10/07 02:14:46;;;;;;;8.48;5.18;;;15.10;99.90;;;;;;5053484;28;20035;-73
2022/10/07 02:17:19;;;;;;;12.63;5.65;;;15.10;99.90;;;;;;5054133;28;20060;-73
2022/10/07 02:19:52;;;;;;;10.63;5.30;;;15.10;99.90;;;;;;5054040;28;20092;-72
2022/10/07 02:22:21;;;;;;;10.88;5.38;;;15.10;99.90;;;;;;5053518;28;20112;-71
2022/10/07 02:24:49;;;;;;;5.88;4.88;;;15.10;99.90;;;;;;5053714;28;20111;-73
2022/10/07 02:27:20;;;;;;;10.38;5.88;;;15.00;99.90;;;;;;5053391;28;20086;-76
2022/10/07 02:29:47;;;;;;;10.47;5.80;;;15.10;99.90;;;;;;5053746;28;20029;-73
2022/10/07 02:32:18;;;;;;;11.68;5.90;;;15.00;99.90;;;;;;5052718;28;20337;-73
2022/10/07 02:34:47;;;;;;;7.57;5.40;;;15.00;99.90;;;;;;5053633;28;20418;-73
2022/10/07 02:37:18;;;;;;;8.52;6.32;;;15.00;99.90;;;;;;5053297;28;20025;-73
2022/10/07 02:39:45;;;;;;;9.57;6.05;;;14.90;99.90;;;;;;5052666;28;20025;-73
2022/10/07 02:42:34;;;;;;;9.00;6.03;;;14.90;99.90;;;;;;5053272;28;20029;-73
2022/10/07 02:45:38;;;;;;;10.82;6.82;;;14.90;99.90;;;;;;5053353;28;20693;-73
2022/10/07 02:48:32;;;;;;;14.15;6.53;;;14.90;99.90;;;;;;5053437;28;20469;-72
2022/10/07 02:51:05;;;;;;;9.73;6.38;;;14.90;99.90;;;;;;5050002;28;20412;-72
2022/10/07 02:53:32;;;;;;;8.05;6.13;;;14.90;99.90;;;;;;5053249;28;20094;-72
2022/10/07 02:56:00;;;;;;;11.02;7.15;;;14.90;99.90;;;;;;5053229;28;20099;-72
2022/10/07 02:58:26;;;;;;;13.73;7.80;;;14.80;99.90;;;;;;5052539;28;20056;-72
2022/10/07 03:00:57;;;;;;;10.82;6.82;;;14.80;99.90;;;;;;5053109;28;20037;-72
2022/10/07 03:03:24;;;;;;;11.63;6.90;;;14.80;99.90;;;;;;5052652;28;20057;-72
2022/10/07 03:05:51;;;;;;;9.55;6.20;;;14.80;99.90;;;;;;5052934;28;20033;-72
2022/10/07 03:08:20;;;;;;;13.88;7.50;;;14.70;99.90;;;;;;5052585;28;20496;-73
2022/10/07 03:10:46;;;;;;;11.20;7.38;;;14.70;99.90;;;;;;5052899;28;20021;-73
2022/10/07 03:13:14;;;;;;;10.00;6.80;;;14.70;99.90;;;;;;5052897;28;20485;-71
2022/10/07 03:15:40;;;;;;;9.90;6.93;;;14.70;99.90;;;;;;5051266;28;20029;-73
2022/10/07 03:18:06;;;;;;;10.23;6.80;;;14.70;99.90;;;;;;5052710;28;20033;-73
2022/10/07 03:20:32;;;;;;;8.80;6.60;;;14.70;99.90;;;;;;5052467;28;20104;-73
2022/10/07 03:22:59;;;;;;;11.70;6.88;;;14.70;99.90;;;;;;5052764;28;20186;-73
2022/10/07 03:25:25;;;;;;;11.80;7.72;;;14.70;99.90;;;;;;5052431;28;20039;-73
2022/10/07 03:27:55;;;;;;;14.93;7.63;;;14.70;99.90;;;;;;5052717;28;20450;-72
2022/10/07 03:30:21;;;;;;;9.50;6.38;;;14.70;99.90;;;;;;5052316;28;20029;-73
2022/10/07 03:32:49;;;;;;;11.00;6.30;;;14.60;99.90;;;;;;5052912;28;20051;-72
2022/10/07 03:35:15;;;;;;;11.38;6.93;;;14.60;99.90;;;;;;5051954;28;20397;-72
2022/10/07 03:37:40;;;;;;;12.02;7.00;;;14.60;99.90;;;;;;5051913;28;20366;-72
2022/10/07 03:40:07;;;;;;;12.27;6.88;;;14.60;99.90;;;;;;5052589;28;20454;-72
2022/10/07 03:42:32;;;;;;;12.48;7.18;;;14.60;99.90;;;;;;5052134;28;20021;-73
2022/10/07 03:44:58;;;;;;;10.55;6.68;;;14.50;99.90;;;;;;5052308;28;20070;-73
2022/10/07 03:47:26;;;;;;;9.68;6.88;;;14.50;99.90;;;;;;5052095;28;20082;-73
2022/10/07 03:49:52;;;;;;;11.50;6.97;;;14.50;99.90;;;;;;5052607;28;20022;-72
2022/10/07 03:52:18;;;;;;;14.15;7.18;;;14.50;99.90;;;;;;5052287;28;20029;-72
2022/10/07 03:54:43;;;;;;;10.68;6.47;;;14.50;99.90;;;;;;5052018;28;20081;-72
2022/10/07 03:59:53;;;;;;;12.75;6.47;;;14.40;99.90;;;;;;5052536;28;20123;-73
2022/10/07 04:02:22;;;;;;;16.08;6.78;;;14.40;99.90;;;;;;5052385;28;20370;-73
2022/10/07 04:04:50;;;;;;;8.32;6.50;;;14.40;99.90;;;;;;5052334;28;20116;-73
2022/10/07 04:07:15;;;;;;;15.18;7.30;;;14.30;99.90;;;;;;5052207;28;20040;-73
2022/10/07 04:09:41;;;;;;;11.57;6.93;;;14.30;99.90;;;;;;5051906;28;20103;-72
2022/10/07 04:12:07;;;;;;;12.65;6.68;;;14.30;99.90;;;;;;5052113;28;20029;-72
2022/10/07 04:14:33;;;;;;;10.45;6.72;;;14.30;99.90;;;;;;5051916;28;20053;-72
2022/10/07 04:16:59;;;;;;;12.30;7.35;;;14.30;99.90;;;;;;5052206;28;20095;-73
2022/10/07 04:19:25;;;;;;;9.57;6.47;;;14.30;99.90;;;;;;5051819;28;20128;-75
2022/10/07 04:21:51;;;;;;;10.02;6.68;;;14.20;99.90;;;;;;5052322;28;20029;-73
2022/10/07 04:24:17;;;;;;;11.18;6.60;;;14.20;99.90;;;;;;5052181;28;20083;-73
2022/10/07 04:26:42;;;;;;;11.13;6.70;;;14.20;99.90;;;;;;5051471;28;20397;-73
2022/10/07 04:29:08;;;;;;;11.27;7.72;;;14.20;99.90;;;;;;5051980;28;20036;-73
2022/10/07 04:31:34;;;;;;;15.45;6.95;;;14.20;99.90;;;;;;5050962;28;20076;-74
2022/10/07 04:33:59;;;;;;;11.52;7.22;;;14.20;99.90;;;;;;5052361;28;20438;-75
2022/10/07 04:36:26;;;;;;;11.32;7.07;;;14.20;99.90;;;;;;5052058;28;20036;-73
2022/10/07 04:38:51;;;;;;;13.15;7.70;;;14.10;99.90;;;;;;5051860;28;20036;-73
2022/10/07 04:41:17;;;;;;;9.30;6.40;;;14.10;99.90;;;;;;5052075;28;20595;-73
2022/10/07 04:43:43;;;;;;;12.50;7.13;;;14.10;99.90;;;;;;5051729;28;20521;-73
2022/10/07 04:46:13;;;;;;;11.35;6.43;;;14.10;99.90;;;;;;5051734;28;20025;-72
2022/10/07 04:48:42;;;;;;;9.70;7.35;;;14.10;99.90;;;;;;5051619;28;20377;-73
2022/10/07 04:51:08;;;;;;;13.77;7.75;;;14.10;99.90;;;;;;5051924;28;20033;-72
2022/10/07 04:53:35;;;;;;;13.85;6.72;;;14.10;99.90;;;;;;5051527;28;20100;-72
2022/10/07 04:56:02;;;;;;;14.73;6.85;;;14.10;99.90;;;;;;5051726;28;20033;-72
2022/10/07 04:58:29;;;;;;;10.82;6.90;;;14.10;99.90;;;;;;5051266;28;20458;-78
2022/10/07 05:00:56;;;;;;;11.10;6.68;;;14.00;99.90;;;;;;5051843;28;20063;-72
2022/10/07 05:03:24;;;;;;;10.40;6.88;;;14.00;99.90;;;;;;5052390;28;20039;-74
2022/10/07 05:05:52;;;;;;;14.48;7.18;;;14.00;99.90;;;;;;5053472;28;20534;-73
2022/10/07 05:08:23;;;;;;;9.68;6.60;;;14.00;99.90;;;;;;5055227;28;20060;-73
2022/10/07 05:10:53;;;;;;;9.85;6.57;;;14.00;99.90;;;;;;5054989;28;20075;-72
2022/10/07 05:13:19;;;;;;;12.33;6.97;;;14.00;99.90;;;;;;5055336;28;20032;-72
2022/10/07 05:15:56;;;;;;;11.93;6.55;;;14.00;99.90;;;;;;5054666;28;20365;-73
2022/10/07 05:18:23;;;;;;;9.90;5.68;;;14.10;99.90;;;;;;5054933;28;20036;-73
2022/10/07 05:20:49;;;;;;;13.50;6.28;;;14.00;99.90;;;;;;5054546;28;20032;-74
2022/10/07 05:23:17;;;;;;;9.70;5.43;;;14.10;99.90;;;;;;5054753;28;20091;-73
2022/10/07 05:25:43;;;;;;;10.82;6.50;;;14.00;99.90;;;;;;5054244;28;20414;-73
2022/10/07 05:28:13;;;;;;;9.68;5.60;;;14.00;99.90;;;;;;5054886;28;20041;-73
2022/10/07 05:30:40;;;;;;;11.38;6.28;;;14.00;99.90;;;;;;5054602;28;20025;-72
2022/10/07 05:33:08;;;;;;;13.70;6.68;;;14.00;99.90;;;;;;5054746;28;20056;-73
2022/10/07 05:35:34;;;;;;;11.25;5.75;;;14.00;99.90;;;;;;5053934;28;20021;-74
2022/10/07 05:38:00;;;;;;;11.73;6.38;;;14.00;99.90;;;;;;5054339;28;20037;-73
2022/10/07 05:40:26;;;;;;;8.85;5.68;;;14.10;99.90;;;;;;5054760;28;20096;-73
2022/10/07 05:42:52;;;;;;;8.82;6.32;;;14.10;99.90;;;;;;5054356;28;20025;-72
2022/10/07 05:45:18;;;;;;;10.98;5.93;;;14.10;99.90;;;;;;5054640;28;20033;-72
2022/10/07 05:47:46;;;;;;;12.68;5.65;;;14.10;99.90;;;;;;5054228;28;20033;-72
2022/10/07 05:50:11;;;;;;;12.57;7.00;;;14.10;99.90;;;;;;5054496;28;20021;-73
2022/10/07 05:52:37;;;;;;;10.50;6.18;;;14.10;99.90;;;;;;5053775;28;20067;-72
2022/10/07 05:55:04;;;;;;;9.93;6.00;;;14.10;99.90;;;;;;5054217;28;20021;-72
2022/10/07 05:57:30;;;;;;;15.50;6.45;;;14.10;99.90;;;;;;5054300;28;20047;-73
2022/10/07 05:59:57;;;;;;;10.57;6.10;;;14.20;99.90;;;;;;5053793;28;20021;-72
2022/10/07 06:02:24;;;;;;;11.90;6.20;;;14.20;99.90;;;;;;5053144;28;20123;-73
2022/10/07 06:04:49;;;;;;;9.13;6.05;;;14.20;99.90;;;;;;5054007;28;20040;-72
2022/10/07 06:07:15;;;;;;;11.85;6.38;;;14.20;99.90;;;;;;5054629;28;20025;-72
2022/10/07 06:15:09;;;;;;;9.00;6.20;;;14.30;99.90;;;;;;5054361;28;20039;-73
2022/10/07 06:17:44;;;;;;;14.93;7.18;;;14.40;99.90;;;;;;5053821;28;20112;-74
2022/10/07 06:20:13;;;;;;;10.80;7.10;;;14.50;99.90;;;;;;5053864;28;20104;-73
2022/10/07 06:22:39;;;;;;;12.43;7.20;;;14.60;99.90;;;;;;5052591;28;20112;-73
2022/10/07 06:25:05;;;;;;;13.88;7.85;;;14.70;99.90;;;;;;5053074;28;20116;-73
2022/10/07 06:27:31;;;;;;;10.88;7.57;;;14.80;99.90;;;;;;5052430;28;20029;-73
2022/10/07 06:29:56;;;;;;;12.25;7.90;;;14.90;99.90;;;;;;5053357;28;20029;-73
2022/10/07 06:32:22;;;;;;;11.93;8.20;;;15.00;99.90;;;;;;5053846;28;20096;-73
2022/10/07 06:34:48;;;;;;;13.63;8.95;;;15.00;99.90;;;;;;5052909;28;20119;-72
2022/10/07 06:37:13;;;;;;;13.70;9.85;;;15.10;99.90;;;;;;5053374;28;20017;-73
2022/10/07 06:39:39;;;;;;;17.48;10.32;;;15.10;99.90;;;;;;5052651;28;20083;-73
2022/10/07 06:42:05;;;;;;;16.63;11.10;;;15.20;99.90;;;;;;5052861;28;20037;-73
2022/10/07 06:44:30;;;;;;;26.70;11.93;;;15.20;99.90;;;;;;5050279;28;20059;-73
2022/10/07 06:46:56;;;;;;;17.30;11.68;;;15.30;99.90;;;;;;5052665;28;20704;-73
2022/10/07 06:49:22;;;;;;;19.85;11.10;;;15.40;99.90;;;;;;5052956;28;20470;-73
2022/10/07 06:51:48;;;;;;;16.23;10.30;;;15.50;99.90;;;;;;5052625;28;20036;-74
2022/10/07 06:54:13;;;;;;;17.42;11.32;;;15.60;99.90;;;;;;5052736;28;20048;-72
2022/10/07 06:56:39;;;;;;;16.77;10.05;;;15.70;99.90;;;;;;5052362;28;20082;-73
2022/10/07 06:59:05;;;;;;;22.52;10.77;;;15.80;99.90;;;;;;5052777;28;20083;-72
2022/10/07 07:01:31;;;;;;;17.63;10.65;;;15.80;99.90;;;;;;5048742;28;20021;-72
2022/10/07 07:03:57;;;;;;;15.98;10.82;;;15.80;99.90;;;;;;5052651;28;20028;-72
2022/10/07 07:06:23;;;;;;;19.67;11.48;;;15.80;99.90;;;;;;5053166;28;20036;-73
2022/10/07 07:08:49;;;;;;;17.48;11.65;;;15.90;99.90;;;;;;5050701;28;20025;-73
2022/10/07 07:14:00;;;;;;;16.48;10.05;;;16.00;99.90;;;;;;5048687;28;20094;-73
2022/10/07 07:16:27;;;;;;;15.63;10.02;;;16.10;99.90;;;;;;5052582;28;20060;-73
2022/10/07 07:18:57;;;;;;;14.10;10.13;;;16.20;99.90;;;;;;5051951;28;20478;-73
2022/10/07 07:21:24;;;;;;;14.57;9.90;;;16.30;99.90;;;;;;5053000;28;20122;-73
2022/10/07 07:23:51;;;;;;;15.23;8.93;;;16.40;99.90;;;;;;5052203;28;20036;-72
2022/10/07 07:26:18;;;;;;;12.55;9.55;;;16.60;99.90;;;;;;5051897;28;20029;-73
2022/10/07 07:28:49;;;;;;;15.68;9.52;;;16.80;99.90;;;;;;5052048;28;20120;-72
2022/10/07 07:31:14;;;;;;;13.43;9.13;;;17.00;99.90;;;;;;5052492;28;20045;-73
2022/10/07 07:33:40;;;;;;;12.85;9.50;;;17.10;99.90;;;;;;5052700;28;20029;-72
2022/10/07 07:36:15;;;;;;;15.77;10.63;;;17.30;99.90;;;;;;5052490;28;20127;-73
2022/10/07 07:38:52;;;;;;;20.02;10.05;;;17.40;99.90;;;;;;5050872;28;20056;-73
2022/10/07 07:41:28;;;;;;;14.98;9.77;;;17.50;99.90;;;;;;5032607;28;20036;-73
2022/10/07 07:43:56;;;;;;;11.45;8.57;;;17.60;99.90;;;;;;5048425;28;20025;-73
2022/10/07 07:46:24;;;;;;;12.27;9.07;;;17.80;99.50;;;;;;5052109;28;20098;-73
2022/10/07 07:48:51;;;;;;;16.10;9.98;;;17.90;99.30;;;;;;5052227;28;20033;-73
2022/10/07 07:51:17;;;;;;;13.52;9.63;;;18.10;98.30;;;;;;5052147;28;20040;-72
2022/10/07 07:53:44;;;;;;;16.88;9.25;;;18.30;97.80;;;;;;5051953;28;20034;-74
2022/10/07 07:56:10;;;;;;;15.40;9.32;;;18.50;96.90;;;;;;5052240;28;20033;-73
2022/10/07 07:58:37;;;;;;;12.50;8.95;;;18.80;96.40;;;;;;5051825;28;20126;-72
2022/10/07 08:01:04;;;;;;;12.80;8.52;;;19.20;95.60;;;;;;5051959;28;20439;-73
2022/10/07 08:03:31;;;;;;;14.07;9.50;;;19.60;94.30;;;;;;5052627;28;20047;-72
2022/10/07 08:06:00;;;;;;;13.88;8.63;;;20.00;92.90;;;;;;5051761;28;20100;-75
2022/10/07 08:08:27;;;;;;;14.77;9.10;;;20.10;91.40;;;;;;5052108;28;20033;-72
2022/10/07 08:10:53;;;;;;;15.75;9.18;;;20.10;90.50;;;;;;5051604;28;20029;-73
2022/10/07 08:13:18;;;;;;;16.38;9.70;;;20.10;91.00;;;;;;5052119;28;20104;-73
2022/10/07 08:15:44;;;;;;;23.80;9.98;;;20.00;91.50;;;;;;5051549;28;20101;-76
2022/10/07 08:18:10;;;;;;;14.23;10.07;;;20.10;91.60;;;;;;5051458;28;20091;-72
2022/10/07 08:20:38;;;;;;;14.60;10.18;;;20.10;91.70;;;;;;5051631;28;20075;-74
2022/10/07 08:23:05;;;;;;;15.55;10.30;;;20.00;91.80;;;;;;5050195;28;20055;-72
2022/10/07 08:25:30;;;;;;;19.15;10.73;;;19.80;91.70;;;;;;5051995;28;20036;-73
2022/10/07 08:27:57;;;;;;;15.95;10.70;;;19.80;92.50;;;;;;5051486;28;20358;-74
2022/10/07 08:30:23;;;;;;;13.07;9.82;;;19.80;92.40;;;;;;5051928;28;20124;-73
2022/10/07 08:32:49;;;;;;;14.25;10.20;;;19.80;92.30;;;;;;5051056;28;20107;-73
2022/10/07 08:35:15;;;;;;;17.15;9.35;;;19.70;92.50;;;;;;5051207;28;20021;-72
2022/10/07 08:37:40;;;;;;;17.50;10.15;;;19.70;92.90;;;;;;5052750;28;20029;-73
2022/10/07 08:40:11;;;;;;;15.15;9.77;;;19.70;92.50;;;;;;5055053;28;20460;-74
2022/10/07 08:42:40;;;;;;;16.20;10.68;;;19.80;92.40;;;;;;5055883;28;20027;-73
2022/10/07 08:45:09;;;;;;;13.48;10.57;;;19.80;92.40;;;;;;5054812;28;20191;-74
2022/10/07 08:47:42;;;;;;;16.05;10.88;;;19.70;92.80;;;;;;5055643;28;20029;-74
2022/10/07 08:50:20;;;;;;;15.88;10.60;;;19.80;93.00;;;;;;5054949;28;20567;-74
2022/10/07 08:52:58;;;;;;;13.75;8.77;;;19.90;92.70;;;;;;5055471;28;20036;-73
2022/10/07 08:55:50;;;;;;;17.10;10.68;;;19.90;92.80;;;;;;5055377;28;20036;-74
2022/10/07 08:58:34;;;;;;;17.38;10.40;;;20.10;92.40;;;;;;5054870;28;20037;-72
2022/10/07 09:01:26;;;;;;;17.83;11.13;;;20.10;92.30;;;;;;5055021;28;20028;-73
2022/10/07 09:04:04;;;;;;;15.57;10.07;;;20.10;92.00;;;;;;5054832;28;20057;-74
2022/10/07 09:06:41;;;;;;;16.20;10.35;;;20.10;92.20;;;;;;5055173;28;20033;-73
2022/10/07 09:09:21;;;;;;;15.43;10.15;;;20.20;91.90;;;;;;5054700;28;20033;-74
2022/10/07 09:11:49;;;;;;;17.83;11.20;;;20.20;92.20;;;;;;5054922;28;20521;-74
2022/10/07 09:14:36;;;;;;;17.27;10.68;;;20.20;92.10;;;;;;5054997;28;20029;-73
2022/10/07 09:17:18;;;;;;;17.60;10.63;;;20.30;92.30;;;;;;5054558;28;20048;-72
2022/10/07 09:19:48;;;;;;;14.82;10.85;;;20.40;92.30;;;;;;5054700;28;20044;-73
2022/10/07 09:22:21;;;;;;;14.80;10.25;;;20.60;92.10;;;;;;5054678;28;20025;-73
2022/10/07 09:24:51;;;;;;;20.85;12.00;;;20.70;92.00;;;;;;5055352;28;20075;-73
2022/10/07 09:27:21;;;;;;;16.65;10.55;;;20.70;91.40;;;;;;5054885;28;20037;-73
2022/10/07 09:29:47;;;;;;;18.30;11.13;;;20.80;91.70;;;;;;5054546;28;20068;-73
2022/10/07 09:32:17;;;;;;;17.23;9.88;;;21.00;91.10;;;;;;5054401;28;20434;-73
2022/10/07 09:34:51;;;;;;;13.80;9.07;;;21.10;90.70;;;;;;5054525;28;20036;-75
2022/10/07 09:37:17;;;;;;;14.52;8.80;;;21.20;90.50;;;;;;5054684;28;20481;-73
2022/10/07 09:39:45;;;;;;;14.90;8.88;;;21.20;90.10;;;;;;5054596;28;20039;-73
2022/10/07 09:42:36;;;;;;;15.00;9.68;;;21.30;89.50;;;;;;5053369;28;20028;-73
2022/10/07 09:45:32;;;;;;;13.40;9.30;;;21.30;88.40;;;;;;5054163;28;20079;-74
2022/10/07 09:48:06;;;;;;;13.45;8.95;;;21.30;88.90;;;;;;5053330;28;20036;-75
2022/10/07 09:50:39;;;;;;;13.02;8.70;;;21.40;88.10;;;;;;5053524;28;20469;-74
2022/10/07 09:53:27;;;;;;;12.00;8.60;;;21.50;88.20;;;;;;5053208;28;20117;-74
2022/10/07 09:55:54;;;;;;;13.35;7.90;;;21.50;86.30;;;;;;5053326;28;20021;-74
2022/10/07 09:58:30;;;;;;;11.52;8.15;;;21.50;86.10;;;;;;5054100;28;20033;-73
2022/10/07 10:00:58;;;;;;;13.73;8.43;;;21.70;85.60;;;;;;5053842;28;20025;-74
2022/10/07 10:03:35;;;;;;;10.48;7.70;;;21.70;85.20;;;;;;5053989;28;20029;-73
2022/10/07 10:06:02;;;;;;;11.63;7.50;;;21.70;83.40;;;;;;5053994;28;20044;-73
2022/10/07 10:08:30;;;;;;;11.02;7.63;;;21.60;83.70;;;;;;5054017;28;20108;-73
2022/10/07 10:11:00;;;;;;;11.52;7.05;;;21.60;84.10;;;;;;5053223;28;20430;-73
2022/10/07 10:13:35;;;;;;;13.57;7.07;;;21.70;83.30;;;;;;5053908;28;20308;-72
2022/10/07 10:16:02;;;;;;;11.88;7.60;;;21.80;82.60;;;;;;5053303;28;20028;-73
2022/10/07 10:18:39;;;;;;;12.23;8.05;;;21.90;80.20;;;;;;5053940;28;20421;-73
2022/10/07 10:21:13;;;;;;;10.13;7.57;;;21.80;79.50;;;;;;5053285;28;20063;-73
2022/10/07 10:23:51;;;;;;;15.60;9.02;;;21.90;78.90;;;;;;5053846;28;20096;-73
2022/10/07 10:26:25;;;;;;;12.13;8.68;;;21.90;78.60;;;;;;5053684;28;20531;-72
2022/10/07 10:28:57;;;;;;;18.58;10.02;;;21.80;78.10;;;;;;5053781;28;20040;-71
2022/10/07 10:31:59;;;;;;;15.40;8.55;;;21.70;77.70;;;;;;5053345;28;20125;-72
2022/10/07 10:34:34;;;;;;;;;;;21.80;77.70;;;;;;5053572;28;20025;-74
2022/10/07 10:37:19;;;;;;;16.00;9.30;;;21.80;76.40;;;;;;5053427;28;19912;-74
2022/10/07 10:39:50;;;;;;;13.88;8.45;;;21.70;77.00;;;;;;5053467;28;20134;-73
2022/10/07 10:42:25;;;;;;;13.38;8.25;;;21.80;77.20;;;;;;5053196;28;20025;-73
2022/10/07 10:45:23;;;;;;;10.55;7.35;;;21.80;75.60;;;;;;5053574;28;20052;-73
2022/10/07 10:47:55;;;;;;;12.05;7.40;;;21.80;75.90;;;;;;5053265;28;20029;-72
2022/10/07 10:50:29;;;;;;;11.73;6.88;;;21.80;76.00;;;;;;5053281;28;20150;-73
2022/10/07 10:52:58;;;;;;;11.98;7.13;;;21.90;75.80;;;;;;5052661;28;20020;-78
2022/10/07 10:55:46;;;;;;;11.05;6.57;;;21.90;75.60;;;;;;5053059;28;20036;-72
2022/10/07 10:58:35;;;;;;;9.55;6.40;;;21.90;75.30;;;;;;5050779;28;20040;-73
2022/10/07 11:01:18;;;;;;;11.57;6.95;;;21.90;75.40;;;;;;5051883;28;20029;-72
2022/10/07 11:04:15;;;;;;;8.43;5.97;;;21.90;74.70;;;;;;5053351;28;20373;-73
2022/10/07 11:06:45;;;;;;;9.23;5.03;;;21.90;75.00;;;;;;5052592;28;20477;-72
2022/10/07 11:09:28;;;;;;;10.18;6.43;;;22.00;75.40;;;;;;5052596;28;20029;-72
2022/10/07 11:11:55;;;;;;;9.10;6.40;;;21.90;75.10;;;;;;5053060;28;20439;-73
2022/10/07 11:14:23;;;;;;;9.60;5.80;;;22.00;74.90;;;;;;5052427;28;20477;-72
2022/10/07 11:16:55;;;;;;;8.07;5.47;;;22.00;75.30;;;;;;5052794;28;20112;-73
2022/10/07 11:19:31;;;;;;;7.25;5.53;;;22.00;74.60;;;;;;5052458;28;20033;-73
2022/10/07 11:22:00;;;;;;;8.32;5.32;;;22.00;74.70;;;;;;5052832;28;20021;-72
2022/10/07 11:24:38;;;;;;;9.07;5.47;;;22.00;74.70;;;;;;5053009;28;20021;-73
2022/10/07 11:27:13;;;;;;;10.18;6.07;;;22.00;75.50;;;;;;5052273;28;20029;-73
2022/10/07 11:29:57;;;;;;;12.13;5.68;;;22.10;75.40;;;;;;5052737;28;20381;-72
2022/10/07 11:32:54;;;;;;;8.93;5.75;;;22.10;74.70;;;;;;5052187;28;20045;-73
2022/10/07 11:35:39;;;;;;;6.65;5.18;;;22.10;75.10;;;;;;5052190;28;20444;-72
2022/10/07 11:38:13;;;;;;;9.90;5.75;;;22.10;75.50;;;;;;5051975;28;20048;-72
2022/10/07 11:40:44;;;;;;;6.95;4.97;;;22.00;74.90;;;;;;5052492;28;20449;-72
2022/10/07 11:43:37;;;;;;;7.82;4.90;;;22.00;75.60;;;;;;5052224;28;20092;-73
2022/10/07 11:46:13;;;;;;;6.72;5.00;;;22.00;75.60;;;;;;5049828;28;20112;-72
2022/10/07 11:49:03;;;;;;;8.73;5.07;;;22.00;76.20;;;;;;5051860;28;20128;-73
2022/10/07 11:51:38;;;;;;;6.32;4.15;;;21.90;75.80;;;;;;5052618;28;20041;-71
2022/10/07 11:54:07;;;;;;;8.07;4.93;;;21.90;76.30;;;;;;5051984;28;20033;-72
2022/10/07 11:56:59;;;;;;;8.05;4.68;;;22.00;76.30;;;;;;5052306;28;20060;-73
2022/10/07 11:59:44;;;;;;;10.45;4.10;;;22.00;76.70;;;;;;5051892;28;20041;-73
2022/10/07 12:02:37;;;;;;;12.45;4.75;;;22.00;76.50;;;;;;5051961;28;20057;-73
2022/10/07 12:05:03;;;;;;;9.60;4.47;;;22.10;76.00;;;;;;5051201;28;20389;-73
2022/10/07 12:07:33;;;;;;;6.97;4.30;;;22.00;76.10;;;;;;5050874;28;20029;-73
2022/10/07 12:10:00;;;;;;;6.78;4.57;;;22.00;76.70;;;;;;5052270;28;20365;-72
2022/10/07 12:12:47;;;;;;;8.40;4.25;;;22.00;77.00;;;;;;5053169;28;20017;-73
2022/10/07 12:15:34;;;;;;;5.57;4.63;;;22.10;76.60;;;;;;5055668;28;20017;-73
2022/10/07 12:18:05;;;;;;;4.03;3.47;;;22.10;76.70;;;;;;5056281;28;20036;-73
2022/10/07 12:20:45;;;;;;;;;;;22.10;76.80;;;;;;5056603;28;20021;-72
2022/10/07 12:23:20;;;;;;;5.90;3.95;;;22.10;76.20;;;;;;5055889;28;19904;-73
2022/10/07 12:25:59;;;;;;;6.30;4.13;;;22.10;76.40;;;;;;5056255;28;20036;-72
2022/10/07 12:28:33;;;;;;;7.13;3.83;;;22.00;76.80;;;;;;5055379;28;20470;-73
2022/10/07 12:31:05;;;;;;;8.48;3.53;;;21.90;76.50;;;;;;5054895;28;20381;-71
2022/10/07 12:33:42;;;;;;;8.13;3.85;;;21.90;76.50;;;;;;5055729;28;20080;-72
2022/10/07 12:36:22;;;;;;;6.28;3.55;;;21.80;76.50;;;;;;5055549;28;20033;-73
2022/10/07 12:38:57;;;;;;;5.35;3.53;;;21.80;76.90;;;;;;5055720;28;20076;-73
2022/10/07 12:41:28;;;;;;;9.32;3.58;;;21.80;76.70;;;;;;5055433;28;20044;-74
2022/10/07 12:44:12;;;;;;;4.33;3.23;;;21.60;76.60;;;;;;5054493;28;20025;-74
2022/10/07 12:46:56;;;;;;;3.28;2.85;;;21.60;76.80;;;;;;5055732;28;20263;-73
2022/10/07 12:49:35;;;;;;;6.80;3.05;;;21.60;76.20;;;;;;5055198;28;20040;-72
2022/10/07 12:52:14;;;;;;;4.03;3.22;;;21.50;75.40;;;;;;5055705;28;20099;-73
2022/10/07 12:55:15;;;;;;;5.57;2.97;;;21.50;75.90;;;;;;5055564;28;20029;-73
2022/10/07 12:57:46;;;;;;;8.45;3.00;;;21.50;75.40;;;;;;5053361;28;20040;-73
2022/10/07 13:00:18;;;;;;;4.22;2.80;;;21.40;75.50;;;;;;5055463;28;20028;-72
2022/10/07 13:03:05;;;;;;;5.43;2.72;;;21.40;75.60;;;;;;5055459;28;20029;-72
2022/10/07 13:06:08;;;;;;;4.10;2.88;;;21.30;76.10;;;;;;5055157;28;20386;-72
2022/10/07 13:09:12;;;;;;;4.15;2.88;;;21.30;76.10;;;;;;5055246;28;20360;-72
2022/10/07 13:11:57;;;;;;;8.45;2.97;;;21.30;76.20;;;;;;5055197;28;20090;-73
2022/10/07 13:14:30;;;;;;;4.15;3.03;;;21.30;76.60;;;;;;5054875;28;20112;-73
2022/10/07 13:17:05;;;;;;;5.65;3.00;;;21.30;76.60;;;;;;5055265;28;20029;-72